sensor_id;sensor_type;location;lat;lon;timestamp;P1;durP1;ratioP1;P2;durP2;ratioP2
19278;SDS011;9773;47.062;15.446;2022-12-05T00:01:51;7.00;;;6.30;;
19278;SDS011;9773;47.062;15.446;2022-12-05T00:04:18;7.13;;;6.43;;
19278;SDS011;9773;47.062;15.446;2022-12-05T00:06:44;8.23;;;6.50;;
19278;SDS011;9773;47.062;15.446;2022-12-05T00:09:11;8.33;;;7.37;;
19278;SDS011;9773;47.062;15.446;2022-12-05T00:11:38;9.33;;;7.27;;
19278;SDS011;9773;47.062;15.446;2022-12-05T00:14:07;8.47;;;6.70;;
19278;SDS011;9773;47.062;15.446;2022-12-05T00:16:34;8.50;;;7.20;;
19278;SDS011;9773;47.062;15.446;2022-12-05T00:19:02;7.73;;;6.70;;
19278;SDS011;9773;47.062;15.446;2022-12-05T00:21:30;9.50;;;7.37;;
19278;SDS011;9773;47.062;15.446;2022-12-05T00:23:58;10.03;;;7.53;;
19278;SDS011;9773;47.062;15.446;2022-12-05T00:26:25;9.13;;;7.13;;
19278;SDS011;9773;47.062;15.446;2022-12-05T00:28:52;8.20;;;6.87;;
19278;SDS011;9773;47.062;15.446;2022-12-05T00:31:20;9.63;;;7.47;;
19278;SDS011;9773;47.062;15.446;2022-12-05T00:33:47;9.73;;;8.27;;
19278;SDS011;9773;47.062;15.446;2022-12-05T00:36:24;10.33;;;8.33;;
19278;SDS011;9773;47.062;15.446;2022-12-05T00:38:52;10.10;;;7.87;;
19278;SDS011;9773;47.062;15.446;2022-12-05T00:41:20;10.67;;;7.93;;
19278;SDS011;9773;47.062;15.446;2022-12-05T00:43:47;9.50;;;7.60;;
19278;SDS011;9773;47.062;15.446;2022-12-05T00:46:14;9.80;;;7.17;;
19278;SDS011;9773;47.062;15.446;2022-12-05T00:48:42;11.73;;;8.73;;
19278;SDS011;9773;47.062;15.446;2022-12-05T00:51:13;10.20;;;7.97;;
19278;SDS011;9773;47.062;15.446;2022-12-05T00:53:43;10.47;;;8.77;;
19278;SDS011;9773;47.062;15.446;2022-12-05T00:56:14;11.20;;;8.70;;
19278;SDS011;9773;47.062;15.446;2022-12-05T00:58:41;12.57;;;9.00;;
19278;SDS011;9773;47.062;15.446;2022-12-05T01:01:11;10.80;;;8.07;;
19278;SDS011;9773;47.062;15.446;2022-12-05T01:03:43;12.57;;;8.93;;
19278;SDS011;9773;47.062;15.446;2022-12-05T01:06:10;13.63;;;9.20;;
19278;SDS011;9773;47.062;15.446;2022-12-05T01:08:37;11.40;;;8.20;;
19278;SDS011;9773;47.062;15.446;2022-12-05T01:11:03;12.37;;;8.23;;
19278;SDS011;9773;47.062;15.446;2022-12-05T01:13:30;10.00;;;7.93;;
19278;SDS011;9773;47.062;15.446;2022-12-05T01:15:56;10.90;;;7.70;;
19278;SDS011;9773;47.062;15.446;2022-12-05T01:18:22;10.67;;;8.70;;
19278;SDS011;9773;47.062;15.446;2022-12-05T01:20:49;11.57;;;7.97;;
19278;SDS011;9773;47.062;15.446;2022-12-05T01:23:15;10.90;;;8.33;;
19278;SDS011;9773;47.062;15.446;2022-12-05T01:25:42;10.63;;;8.43;;
19278;SDS011;9773;47.062;15.446;2022-12-05T01:28:10;14.50;;;9.37;;
19278;SDS011;9773;47.062;15.446;2022-12-05T01:30:37;13.50;;;8.83;;
19278;SDS011;9773;47.062;15.446;2022-12-05T01:33:03;12.10;;;8.40;;
19278;SDS011;9773;47.062;15.446;2022-12-05T01:35:30;12.47;;;8.77;;
19278;SDS011;9773;47.062;15.446;2022-12-05T01:37:57;13.13;;;9.30;;
19278;SDS011;9773;47.062;15.446;2022-12-05T01:40:23;13.03;;;8.33;;
19278;SDS011;9773;47.062;15.446;2022-12-05T01:42:49;14.10;;;9.47;;
19278;SDS011;9773;47.062;15.446;2022-12-05T01:45:16;12.97;;;9.07;;
19278;SDS011;9773;47.062;15.446;2022-12-05T01:47:46;11.13;;;8.33;;
19278;SDS011;9773;47.062;15.446;2022-12-05T01:50:12;14.30;;;9.30;;
19278;SDS011;9773;47.062;15.446;2022-12-05T01:52:39;13.80;;;9.07;;
19278;SDS011;9773;47.062;15.446;2022-12-05T01:55:06;11.60;;;8.70;;
19278;SDS011;9773;47.062;15.446;2022-12-05T01:57:35;14.03;;;9.00;;
19278;SDS011;9773;47.062;15.446;2022-12-05T02:00:04;12.50;;;8.30;;
19278;SDS011;9773;47.062;15.446;2022-12-05T02:02:35;12.27;;;9.10;;
19278;SDS011;9773;47.062;15.446;2022-12-05T02:05:03;12.00;;;8.60;;
19278;SDS011;9773;47.062;15.446;2022-12-05T02:07:31;12.67;;;8.70;;
19278;SDS011;9773;47.062;15.446;2022-12-05T02:09:59;15.93;;;9.80;;
19278;SDS011;9773;47.062;15.446;2022-12-05T02:12:25;12.87;;;8.47;;
19278;SDS011;9773;47.062;15.446;2022-12-05T02:25:21;11.87;;;8.17;;
19278;SDS011;9773;47.062;15.446;2022-12-05T02:37:15;14.63;;;8.77;;
19278;SDS011;9773;47.062;15.446;2022-12-05T02:39:51;12.40;;;8.73;;
19278;SDS011;9773;47.062;15.446;2022-12-05T02:42:28;14.30;;;9.00;;
19278;SDS011;9773;47.062;15.446;2022-12-05T02:45:09;14.83;;;8.70;;
19278;SDS011;9773;47.062;15.446;2022-12-05T02:47:44;16.57;;;9.90;;
19278;SDS011;9773;47.062;15.446;2022-12-05T02:50:16;14.10;;;9.27;;
19278;SDS011;9773;47.062;15.446;2022-12-05T02:52:46;13.07;;;8.97;;
19278;SDS011;9773;47.062;15.446;2022-12-05T02:55:14;14.93;;;9.50;;
19278;SDS011;9773;47.062;15.446;2022-12-05T02:57:44;14.97;;;8.90;;
19278;SDS011;9773;47.062;15.446;2022-12-05T03:00:15;15.10;;;9.57;;
19278;SDS011;9773;47.062;15.446;2022-12-05T03:02:41;15.93;;;9.80;;
19278;SDS011;9773;47.062;15.446;2022-12-05T03:05:20;14.17;;;9.47;;
19278;SDS011;9773;47.062;15.446;2022-12-05T03:07:54;17.03;;;10.47;;
19278;SDS011;9773;47.062;15.446;2022-12-05T03:10:24;15.03;;;9.83;;
19278;SDS011;9773;47.062;15.446;2022-12-05T03:12:55;15.70;;;10.40;;
19278;SDS011;9773;47.062;15.446;2022-12-05T03:15:25;17.20;;;10.20;;
19278;SDS011;9773;47.062;15.446;2022-12-05T03:18:03;15.13;;;10.33;;
19278;SDS011;9773;47.062;15.446;2022-12-05T03:20:35;13.37;;;9.53;;
19278;SDS011;9773;47.062;15.446;2022-12-05T03:23:08;15.20;;;9.60;;
19278;SDS011;9773;47.062;15.446;2022-12-05T03:25:51;14.30;;;9.33;;
19278;SDS011;9773;47.062;15.446;2022-12-05T03:28:35;14.23;;;9.60;;
19278;SDS011;9773;47.062;15.446;2022-12-05T03:31:10;16.40;;;9.13;;
19278;SDS011;9773;47.062;15.446;2022-12-05T03:33:41;16.07;;;9.63;;
19278;SDS011;9773;47.062;15.446;2022-12-05T03:36:12;15.70;;;8.90;;
19278;SDS011;9773;47.062;15.446;2022-12-05T03:41:33;11.93;;;8.40;;
19278;SDS011;9773;47.062;15.446;2022-12-05T03:44:03;14.90;;;8.67;;
19278;SDS011;9773;47.062;15.446;2022-12-05T03:46:34;13.73;;;8.80;;
19278;SDS011;9773;47.062;15.446;2022-12-05T03:49:10;13.17;;;8.70;;
19278;SDS011;9773;47.062;15.446;2022-12-05T03:52:02;12.50;;;8.13;;
19278;SDS011;9773;47.062;15.446;2022-12-05T03:54:52;15.23;;;9.13;;
19278;SDS011;9773;47.062;15.446;2022-12-05T03:57:29;16.43;;;9.13;;
19278;SDS011;9773;47.062;15.446;2022-12-05T04:07:52;12.67;;;8.07;;
19278;SDS011;9773;47.062;15.446;2022-12-05T04:10:25;10.90;;;7.73;;
19278;SDS011;9773;47.062;15.446;2022-12-05T04:12:54;16.40;;;9.40;;
19278;SDS011;9773;47.062;15.446;2022-12-05T04:15:23;15.77;;;9.70;;
19278;SDS011;9773;47.062;15.446;2022-12-05T04:18:13;17.67;;;9.77;;
19278;SDS011;9773;47.062;15.446;2022-12-05T04:20:42;19.87;;;10.57;;
19278;SDS011;9773;47.062;15.446;2022-12-05T04:23:28;19.50;;;11.27;;
19278;SDS011;9773;47.062;15.446;2022-12-05T04:26:06;18.57;;;10.23;;
19278;SDS011;9773;47.062;15.446;2022-12-05T04:28:50;20.53;;;11.10;;
19278;SDS011;9773;47.062;15.446;2022-12-05T04:31:23;19.47;;;10.20;;
19278;SDS011;9773;47.062;15.446;2022-12-05T04:33:56;19.80;;;10.63;;
19278;SDS011;9773;47.062;15.446;2022-12-05T04:39:03;18.77;;;10.27;;
19278;SDS011;9773;47.062;15.446;2022-12-05T04:42:19;17.93;;;10.87;;
19278;SDS011;9773;47.062;15.446;2022-12-05T04:44:29;17.70;;;10.30;;
19278;SDS011;9773;47.062;15.446;2022-12-05T04:47:02;18.73;;;10.97;;
19278;SDS011;9773;47.062;15.446;2022-12-05T04:49:31;17.47;;;10.67;;
19278;SDS011;9773;47.062;15.446;2022-12-05T04:52:00;20.80;;;10.60;;
19278;SDS011;9773;47.062;15.446;2022-12-05T04:57:24;16.97;;;9.70;;
19278;SDS011;9773;47.062;15.446;2022-12-05T04:59:55;17.80;;;9.83;;
19278;SDS011;9773;47.062;15.446;2022-12-05T05:02:24;18.50;;;10.23;;
19278;SDS011;9773;47.062;15.446;2022-12-05T05:05:02;16.27;;;10.33;;
19278;SDS011;9773;47.062;15.446;2022-12-05T05:07:56;15.33;;;9.13;;
19278;SDS011;9773;47.062;15.446;2022-12-05T05:10:24;15.20;;;9.13;;
19278;SDS011;9773;47.062;15.446;2022-12-05T05:12:56;14.40;;;9.10;;
19278;SDS011;9773;47.062;15.446;2022-12-05T05:15:22;15.10;;;9.40;;
19278;SDS011;9773;47.062;15.446;2022-12-05T05:17:48;14.57;;;9.00;;
19278;SDS011;9773;47.062;15.446;2022-12-05T05:20:13;14.97;;;9.20;;
19278;SDS011;9773;47.062;15.446;2022-12-05T05:22:48;15.47;;;9.43;;
19278;SDS011;9773;47.062;15.446;2022-12-05T05:25:15;14.50;;;8.43;;
19278;SDS011;9773;47.062;15.446;2022-12-05T05:27:42;13.93;;;9.07;;
19278;SDS011;9773;47.062;15.446;2022-12-05T05:30:08;15.80;;;9.27;;
19278;SDS011;9773;47.062;15.446;2022-12-05T05:32:33;12.00;;;7.93;;
19278;SDS011;9773;47.062;15.446;2022-12-05T05:34:59;15.90;;;9.47;;
19278;SDS011;9773;47.062;15.446;2022-12-05T05:37:25;16.60;;;8.80;;
19278;SDS011;9773;47.062;15.446;2022-12-05T05:39:51;15.43;;;8.97;;
19278;SDS011;9773;47.062;15.446;2022-12-05T05:42:17;14.10;;;8.77;;
19278;SDS011;9773;47.062;15.446;2022-12-05T05:44:42;15.73;;;9.10;;
19278;SDS011;9773;47.062;15.446;2022-12-05T05:47:08;15.60;;;9.50;;
19278;SDS011;9773;47.062;15.446;2022-12-05T05:49:34;12.77;;;8.90;;
19278;SDS011;9773;47.062;15.446;2022-12-05T05:51:59;13.97;;;8.67;;
19278;SDS011;9773;47.062;15.446;2022-12-05T05:54:25;14.07;;;8.53;;
19278;SDS011;9773;47.062;15.446;2022-12-05T05:56:51;11.47;;;8.07;;
19278;SDS011;9773;47.062;15.446;2022-12-05T05:59:17;12.90;;;8.10;;
19278;SDS011;9773;47.062;15.446;2022-12-05T06:01:42;15.17;;;8.43;;
19278;SDS011;9773;47.062;15.446;2022-12-05T06:04:08;12.50;;;8.07;;
19278;SDS011;9773;47.062;15.446;2022-12-05T06:06:34;13.03;;;8.37;;
19278;SDS011;9773;47.062;15.446;2022-12-05T06:09:00;14.70;;;8.50;;
19278;SDS011;9773;47.062;15.446;2022-12-05T06:11:26;15.70;;;9.03;;
19278;SDS011;9773;47.062;15.446;2022-12-05T06:13:55;11.93;;;8.33;;
19278;SDS011;9773;47.062;15.446;2022-12-05T06:16:25;12.83;;;8.63;;
19278;SDS011;9773;47.062;15.446;2022-12-05T06:18:51;13.33;;;8.37;;
19278;SDS011;9773;47.062;15.446;2022-12-05T06:21:17;16.63;;;8.50;;
19278;SDS011;9773;47.062;15.446;2022-12-05T06:23:43;14.67;;;8.87;;
19278;SDS011;9773;47.062;15.446;2022-12-05T06:26:10;14.37;;;9.27;;
19278;SDS011;9773;47.062;15.446;2022-12-05T06:28:41;13.97;;;8.70;;
19278;SDS011;9773;47.062;15.446;2022-12-05T06:31:09;11.33;;;8.07;;
19278;SDS011;9773;47.062;15.446;2022-12-05T06:33:36;13.33;;;9.23;;
19278;SDS011;9773;47.062;15.446;2022-12-05T06:36:04;12.17;;;8.60;;
19278;SDS011;9773;47.062;15.446;2022-12-05T06:38:32;12.27;;;8.53;;
19278;SDS011;9773;47.062;15.446;2022-12-05T06:40:58;11.57;;;8.53;;
19278;SDS011;9773;47.062;15.446;2022-12-05T06:43:24;14.83;;;8.43;;
19278;SDS011;9773;47.062;15.446;2022-12-05T06:45:49;14.43;;;9.77;;
19278;SDS011;9773;47.062;15.446;2022-12-05T06:48:15;12.23;;;8.57;;
19278;SDS011;9773;47.062;15.446;2022-12-05T06:50:50;12.13;;;8.33;;
19278;SDS011;9773;47.062;15.446;2022-12-05T06:53:18;12.07;;;8.10;;
19278;SDS011;9773;47.062;15.446;2022-12-05T06:55:44;10.57;;;7.50;;
19278;SDS011;9773;47.062;15.446;2022-12-05T06:58:20;10.07;;;6.97;;
19278;SDS011;9773;47.062;15.446;2022-12-05T07:00:45;12.73;;;8.03;;
19278;SDS011;9773;47.062;15.446;2022-12-05T07:03:30;8.80;;;7.13;;
19278;SDS011;9773;47.062;15.446;2022-12-05T07:05:58;13.50;;;8.47;;
19278;SDS011;9773;47.062;15.446;2022-12-05T07:08:25;11.37;;;7.83;;
19278;SDS011;9773;47.062;15.446;2022-12-05T07:10:51;12.17;;;8.30;;
19278;SDS011;9773;47.062;15.446;2022-12-05T07:13:17;10.73;;;8.07;;
19278;SDS011;9773;47.062;15.446;2022-12-05T07:15:45;15.80;;;8.30;;
19278;SDS011;9773;47.062;15.446;2022-12-05T07:18:12;10.57;;;7.47;;
19278;SDS011;9773;47.062;15.446;2022-12-05T07:20:39;9.77;;;7.57;;
19278;SDS011;9773;47.062;15.446;2022-12-05T07:23:05;12.70;;;7.63;;
19278;SDS011;9773;47.062;15.446;2022-12-05T07:25:31;15.43;;;8.70;;
19278;SDS011;9773;47.062;15.446;2022-12-05T07:27:57;14.43;;;9.03;;
19278;SDS011;9773;47.062;15.446;2022-12-05T07:30:23;11.50;;;8.07;;
19278;SDS011;9773;47.062;15.446;2022-12-05T07:32:48;10.13;;;8.17;;
19278;SDS011;9773;47.062;15.446;2022-12-05T07:35:14;13.30;;;7.87;;
19278;SDS011;9773;47.062;15.446;2022-12-05T07:37:40;13.17;;;8.73;;
19278;SDS011;9773;47.062;15.446;2022-12-05T07:40:06;11.73;;;8.60;;
19278;SDS011;9773;47.062;15.446;2022-12-05T07:42:33;12.43;;;8.73;;
19278;SDS011;9773;47.062;15.446;2022-12-05T07:44:58;11.07;;;8.60;;
19278;SDS011;9773;47.062;15.446;2022-12-05T07:47:24;10.60;;;8.33;;
19278;SDS011;9773;47.062;15.446;2022-12-05T07:49:50;16.43;;;9.20;;
19278;SDS011;9773;47.062;15.446;2022-12-05T07:52:16;12.37;;;8.03;;
19278;SDS011;9773;47.062;15.446;2022-12-05T07:54:41;11.90;;;8.53;;
19278;SDS011;9773;47.062;15.446;2022-12-05T07:57:07;11.83;;;8.00;;
19278;SDS011;9773;47.062;15.446;2022-12-05T07:59:33;12.77;;;9.07;;
19278;SDS011;9773;47.062;15.446;2022-12-05T08:01:58;14.30;;;9.00;;
19278;SDS011;9773;47.062;15.446;2022-12-05T08:04:24;10.87;;;8.73;;
19278;SDS011;9773;47.062;15.446;2022-12-05T08:06:50;13.20;;;9.43;;
19278;SDS011;9773;47.062;15.446;2022-12-05T08:09:16;12.57;;;8.40;;
19278;SDS011;9773;47.062;15.446;2022-12-05T08:11:41;13.87;;;9.13;;
19278;SDS011;9773;47.062;15.446;2022-12-05T08:14:07;12.53;;;8.17;;
19278;SDS011;9773;47.062;15.446;2022-12-05T08:16:34;13.43;;;8.47;;
19278;SDS011;9773;47.062;15.446;2022-12-05T08:19:01;14.03;;;9.17;;
19278;SDS011;9773;47.062;15.446;2022-12-05T08:21:29;11.33;;;8.63;;
19278;SDS011;9773;47.062;15.446;2022-12-05T08:23:55;14.27;;;9.77;;
19278;SDS011;9773;47.062;15.446;2022-12-05T08:26:31;13.57;;;9.90;;
19278;SDS011;9773;47.062;15.446;2022-12-05T08:29:02;13.63;;;10.07;;
19278;SDS011;9773;47.062;15.446;2022-12-05T08:31:28;13.77;;;9.80;;
19278;SDS011;9773;47.062;15.446;2022-12-05T08:33:56;14.17;;;9.70;;
19278;SDS011;9773;47.062;15.446;2022-12-05T08:36:23;13.97;;;9.13;;
19278;SDS011;9773;47.062;15.446;2022-12-05T08:38:54;12.03;;;9.03;;
19278;SDS011;9773;47.062;15.446;2022-12-05T08:41:23;13.03;;;9.30;;
19278;SDS011;9773;47.062;15.446;2022-12-05T08:43:53;13.43;;;8.77;;
19278;SDS011;9773;47.062;15.446;2022-12-05T08:46:19;11.37;;;8.73;;
19278;SDS011;9773;47.062;15.446;2022-12-05T08:48:45;11.30;;;8.83;;
19278;SDS011;9773;47.062;15.446;2022-12-05T08:51:11;12.53;;;9.70;;
19278;SDS011;9773;47.062;15.446;2022-12-05T08:53:39;13.87;;;9.60;;
19278;SDS011;9773;47.062;15.446;2022-12-05T08:56:06;12.83;;;9.50;;
19278;SDS011;9773;47.062;15.446;2022-12-05T08:58:33;12.70;;;9.17;;
19278;SDS011;9773;47.062;15.446;2022-12-05T09:01:21;11.37;;;8.90;;
19278;SDS011;9773;47.062;15.446;2022-12-05T09:03:46;12.47;;;8.57;;
19278;SDS011;9773;47.062;15.446;2022-12-05T09:06:13;14.13;;;9.30;;
19278;SDS011;9773;47.062;15.446;2022-12-05T09:08:45;14.30;;;10.20;;
19278;SDS011;9773;47.062;15.446;2022-12-05T09:11:13;12.93;;;9.43;;
19278;SDS011;9773;47.062;15.446;2022-12-05T09:13:41;12.83;;;9.33;;
19278;SDS011;9773;47.062;15.446;2022-12-05T09:16:08;15.27;;;10.90;;
19278;SDS011;9773;47.062;15.446;2022-12-05T09:18:35;17.87;;;11.57;;
19278;SDS011;9773;47.062;15.446;2022-12-05T09:21:08;13.90;;;9.80;;
19278;SDS011;9773;47.062;15.446;2022-12-05T09:23:34;12.07;;;9.80;;
19278;SDS011;9773;47.062;15.446;2022-12-05T09:26:01;15.63;;;10.43;;
19278;SDS011;9773;47.062;15.446;2022-12-05T09:28:29;16.67;;;10.20;;
19278;SDS011;9773;47.062;15.446;2022-12-05T09:30:56;13.40;;;9.97;;
19278;SDS011;9773;47.062;15.446;2022-12-05T09:33:23;13.13;;;8.30;;
19278;SDS011;9773;47.062;15.446;2022-12-05T09:35:49;13.00;;;9.20;;
19278;SDS011;9773;47.062;15.446;2022-12-05T09:38:15;11.90;;;8.47;;
19278;SDS011;9773;47.062;15.446;2022-12-05T09:40:41;10.10;;;8.37;;
19278;SDS011;9773;47.062;15.446;2022-12-05T09:43:08;12.90;;;9.60;;
19278;SDS011;9773;47.062;15.446;2022-12-05T09:46:09;12.03;;;8.80;;
19278;SDS011;9773;47.062;15.446;2022-12-05T09:48:49;12.63;;;9.17;;
19278;SDS011;9773;47.062;15.446;2022-12-05T09:51:16;11.70;;;9.10;;
19278;SDS011;9773;47.062;15.446;2022-12-05T09:53:42;13.50;;;8.57;;
19278;SDS011;9773;47.062;15.446;2022-12-05T09:56:28;12.70;;;8.23;;
19278;SDS011;9773;47.062;15.446;2022-12-05T09:58:56;12.77;;;9.10;;
19278;SDS011;9773;47.062;15.446;2022-12-05T10:18:05;13.10;;;8.27;;
19278;SDS011;9773;47.062;15.446;2022-12-05T10:20:47;13.73;;;9.37;;
19278;SDS011;9773;47.062;15.446;2022-12-05T10:23:24;11.77;;;8.80;;
19278;SDS011;9773;47.062;15.446;2022-12-05T10:25:57;11.87;;;8.57;;
19278;SDS011;9773;47.062;15.446;2022-12-05T10:28:33;11.07;;;8.43;;
19278;SDS011;9773;47.062;15.446;2022-12-05T10:31:01;11.70;;;8.03;;
19278;SDS011;9773;47.062;15.446;2022-12-05T10:33:35;15.67;;;9.47;;
19278;SDS011;9773;47.062;15.446;2022-12-05T10:36:22;14.60;;;8.77;;
19278;SDS011;9773;47.062;15.446;2022-12-05T10:38:49;12.17;;;8.50;;
19278;SDS011;9773;47.062;15.446;2022-12-05T10:41:15;11.17;;;8.33;;
19278;SDS011;9773;47.062;15.446;2022-12-05T10:43:42;13.73;;;8.83;;
19278;SDS011;9773;47.062;15.446;2022-12-05T10:46:10;12.23;;;9.40;;
19278;SDS011;9773;47.062;15.446;2022-12-05T10:48:38;12.93;;;8.50;;
19278;SDS011;9773;47.062;15.446;2022-12-05T10:51:06;12.67;;;8.87;;
19278;SDS011;9773;47.062;15.446;2022-12-05T10:53:42;10.57;;;8.10;;
19278;SDS011;9773;47.062;15.446;2022-12-05T10:59:06;10.87;;;8.77;;
19278;SDS011;9773;47.062;15.446;2022-12-05T11:01:34;11.53;;;8.80;;
19278;SDS011;9773;47.062;15.446;2022-12-05T11:04:07;12.03;;;8.93;;
19278;SDS011;9773;47.062;15.446;2022-12-05T11:06:48;12.57;;;9.13;;
19278;SDS011;9773;47.062;15.446;2022-12-05T11:09:17;13.60;;;8.77;;
19278;SDS011;9773;47.062;15.446;2022-12-05T11:11:56;12.23;;;8.57;;
19278;SDS011;9773;47.062;15.446;2022-12-05T11:14:53;10.60;;;8.90;;
19278;SDS011;9773;47.062;15.446;2022-12-05T11:17:28;11.40;;;8.33;;
19278;SDS011;9773;47.062;15.446;2022-12-05T11:19:59;12.27;;;8.97;;
19278;SDS011;9773;47.062;15.446;2022-12-05T11:22:31;12.07;;;8.60;;
19278;SDS011;9773;47.062;15.446;2022-12-05T11:24:58;11.33;;;8.63;;
19278;SDS011;9773;47.062;15.446;2022-12-05T11:27:28;11.43;;;8.30;;
19278;SDS011;9773;47.062;15.446;2022-12-05T11:30:03;11.47;;;8.60;;
19278;SDS011;9773;47.062;15.446;2022-12-05T11:32:36;11.37;;;8.57;;
19278;SDS011;9773;47.062;15.446;2022-12-05T11:35:44;10.33;;;7.77;;
19278;SDS011;9773;47.062;15.446;2022-12-05T11:40:21;11.63;;;8.30;;
19278;SDS011;9773;47.062;15.446;2022-12-05T12:12:27;12.53;;;8.50;;
19278;SDS011;9773;47.062;15.446;2022-12-05T12:40:49;12.20;;;7.97;;
19278;SDS011;9773;47.062;15.446;2022-12-05T12:52:03;12.10;;;7.60;;
19278;SDS011;9773;47.062;15.446;2022-12-05T12:54:42;10.73;;;7.77;;
19278;SDS011;9773;47.062;15.446;2022-12-05T13:03:09;10.27;;;7.90;;
19278;SDS011;9773;47.062;15.446;2022-12-05T13:06:02;10.20;;;7.97;;
19278;SDS011;9773;47.062;15.446;2022-12-05T13:11:35;13.50;;;8.17;;
19278;SDS011;9773;47.062;15.446;2022-12-05T13:14:08;11.30;;;8.17;;
19278;SDS011;9773;47.062;15.446;2022-12-05T13:16:42;12.63;;;8.73;;
19278;SDS011;9773;47.062;15.446;2022-12-05T13:19:23;11.47;;;8.63;;
19278;SDS011;9773;47.062;15.446;2022-12-05T13:21:52;10.03;;;8.03;;
19278;SDS011;9773;47.062;15.446;2022-12-05T13:24:23;11.90;;;8.13;;
19278;SDS011;9773;47.062;15.446;2022-12-05T13:26:51;8.43;;;6.97;;
19278;SDS011;9773;47.062;15.446;2022-12-05T13:29:27;10.30;;;7.57;;
19278;SDS011;9773;47.062;15.446;2022-12-05T13:32:05;9.27;;;7.50;;
19278;SDS011;9773;47.062;15.446;2022-12-05T13:34:50;10.40;;;8.23;;
19278;SDS011;9773;47.062;15.446;2022-12-05T13:37:18;8.70;;;7.27;;
19278;SDS011;9773;47.062;15.446;2022-12-05T13:40:03;9.73;;;7.07;;
19278;SDS011;9773;47.062;15.446;2022-12-05T13:42:48;10.40;;;7.80;;
19278;SDS011;9773;47.062;15.446;2022-12-05T13:45:25;9.60;;;7.00;;
19278;SDS011;9773;47.062;15.446;2022-12-05T13:53:02;9.47;;;7.23;;
19278;SDS011;9773;47.062;15.446;2022-12-05T13:55:34;9.97;;;7.40;;
19278;SDS011;9773;47.062;15.446;2022-12-05T13:58:48;9.77;;;7.03;;
19278;SDS011;9773;47.062;15.446;2022-12-05T14:00:48;9.90;;;7.00;;
19278;SDS011;9773;47.062;15.446;2022-12-05T14:06:00;8.37;;;6.77;;
19278;SDS011;9773;47.062;15.446;2022-12-05T14:15:47;10.53;;;7.40;;
19278;SDS011;9773;47.062;15.446;2022-12-05T14:18:15;10.00;;;7.40;;
19278;SDS011;9773;47.062;15.446;2022-12-05T14:29:36;11.57;;;8.40;;
19278;SDS011;9773;47.062;15.446;2022-12-05T14:32:11;11.87;;;8.20;;
19278;SDS011;9773;47.062;15.446;2022-12-05T14:39:52;14.20;;;8.73;;
19278;SDS011;9773;47.062;15.446;2022-12-05T14:42:40;14.13;;;8.97;;
19278;SDS011;9773;47.062;15.446;2022-12-05T14:58:28;14.07;;;9.13;;
19278;SDS011;9773;47.062;15.446;2022-12-05T15:00:57;15.43;;;9.47;;
19278;SDS011;9773;47.062;15.446;2022-12-05T15:03:50;15.53;;;9.70;;
19278;SDS011;9773;47.062;15.446;2022-12-05T15:06:34;15.37;;;9.83;;
19278;SDS011;9773;47.062;15.446;2022-12-05T15:09:26;17.40;;;10.33;;
19278;SDS011;9773;47.062;15.446;2022-12-05T15:12:00;18.60;;;10.40;;
19278;SDS011;9773;47.062;15.446;2022-12-05T15:14:28;18.13;;;10.77;;
19278;SDS011;9773;47.062;15.446;2022-12-05T15:17:04;15.00;;;10.20;;
19278;SDS011;9773;47.062;15.446;2022-12-05T15:19:55;16.10;;;10.00;;
19278;SDS011;9773;47.062;15.446;2022-12-05T15:22:27;22.60;;;12.50;;
19278;SDS011;9773;47.062;15.446;2022-12-05T15:24:56;19.77;;;10.80;;
19278;SDS011;9773;47.062;15.446;2022-12-05T15:27:22;19.93;;;11.60;;
19278;SDS011;9773;47.062;15.446;2022-12-05T15:29:51;17.80;;;10.73;;
19278;SDS011;9773;47.062;15.446;2022-12-05T15:32:20;15.33;;;10.27;;
19278;SDS011;9773;47.062;15.446;2022-12-05T15:34:59;19.43;;;10.30;;
19278;SDS011;9773;47.062;15.446;2022-12-05T15:47:43;15.47;;;10.07;;
19278;SDS011;9773;47.062;15.446;2022-12-05T15:50:18;19.80;;;11.00;;
19278;SDS011;9773;47.062;15.446;2022-12-05T15:53:02;18.80;;;9.93;;
19278;SDS011;9773;47.062;15.446;2022-12-05T15:55:37;16.77;;;9.23;;
19278;SDS011;9773;47.062;15.446;2022-12-05T15:58:12;13.37;;;9.17;;
19278;SDS011;9773;47.062;15.446;2022-12-05T16:03:54;15.20;;;9.37;;
19278;SDS011;9773;47.062;15.446;2022-12-05T16:06:28;12.07;;;8.77;;
19278;SDS011;9773;47.062;15.446;2022-12-05T16:09:01;16.87;;;9.83;;
19278;SDS011;9773;47.062;15.446;2022-12-05T16:11:31;15.47;;;9.23;;
19278;SDS011;9773;47.062;15.446;2022-12-05T16:13:58;13.03;;;8.80;;
19278;SDS011;9773;47.062;15.446;2022-12-05T16:16:30;14.60;;;9.67;;
19278;SDS011;9773;47.062;15.446;2022-12-05T16:19:03;13.57;;;9.27;;
19278;SDS011;9773;47.062;15.446;2022-12-05T16:22:05;12.83;;;8.60;;
19278;SDS011;9773;47.062;15.446;2022-12-05T16:24:41;14.87;;;9.20;;
19278;SDS011;9773;47.062;15.446;2022-12-05T16:27:14;14.47;;;9.17;;
19278;SDS011;9773;47.062;15.446;2022-12-05T16:29:40;12.17;;;8.13;;
19278;SDS011;9773;47.062;15.446;2022-12-05T16:32:16;12.53;;;8.77;;
19278;SDS011;9773;47.062;15.446;2022-12-05T16:34:48;14.87;;;9.00;;
19278;SDS011;9773;47.062;15.446;2022-12-05T16:37:17;15.50;;;9.07;;
19278;SDS011;9773;47.062;15.446;2022-12-05T16:39:49;16.13;;;9.50;;
19278;SDS011;9773;47.062;15.446;2022-12-05T16:42:33;14.60;;;9.07;;
19278;SDS011;9773;47.062;15.446;2022-12-05T16:45:02;16.93;;;9.27;;
19278;SDS011;9773;47.062;15.446;2022-12-05T16:52:58;13.10;;;8.90;;
19278;SDS011;9773;47.062;15.446;2022-12-05T16:55:26;16.20;;;9.70;;
19278;SDS011;9773;47.062;15.446;2022-12-05T16:57:52;12.13;;;8.77;;
19278;SDS011;9773;47.062;15.446;2022-12-05T17:00:18;13.40;;;8.60;;
19278;SDS011;9773;47.062;15.446;2022-12-05T17:02:47;14.60;;;9.63;;
19278;SDS011;9773;47.062;15.446;2022-12-05T17:05:16;15.20;;;10.00;;
19278;SDS011;9773;47.062;15.446;2022-12-05T17:07:42;14.50;;;9.07;;
19278;SDS011;9773;47.062;15.446;2022-12-05T17:10:08;14.43;;;8.67;;
19278;SDS011;9773;47.062;15.446;2022-12-05T17:12:34;14.43;;;9.23;;
19278;SDS011;9773;47.062;15.446;2022-12-05T17:15:00;15.87;;;9.17;;
19278;SDS011;9773;47.062;15.446;2022-12-05T17:17:26;14.33;;;9.07;;
19278;SDS011;9773;47.062;15.446;2022-12-05T17:19:52;16.43;;;9.83;;
19278;SDS011;9773;47.062;15.446;2022-12-05T17:22:18;15.90;;;9.30;;
19278;SDS011;9773;47.062;15.446;2022-12-05T17:24:44;14.97;;;9.27;;
19278;SDS011;9773;47.062;15.446;2022-12-05T17:27:11;17.30;;;9.47;;
19278;SDS011;9773;47.062;15.446;2022-12-05T17:29:37;14.80;;;8.90;;
19278;SDS011;9773;47.062;15.446;2022-12-05T17:32:03;15.57;;;10.17;;
19278;SDS011;9773;47.062;15.446;2022-12-05T17:34:29;13.23;;;8.73;;
19278;SDS011;9773;47.062;15.446;2022-12-05T17:36:55;16.87;;;11.07;;
19278;SDS011;9773;47.062;15.446;2022-12-05T17:39:22;16.50;;;10.27;;
19278;SDS011;9773;47.062;15.446;2022-12-05T17:41:48;13.23;;;9.30;;
19278;SDS011;9773;47.062;15.446;2022-12-05T17:44:14;13.57;;;9.13;;
19278;SDS011;9773;47.062;15.446;2022-12-05T17:46:41;15.53;;;9.53;;
19278;SDS011;9773;47.062;15.446;2022-12-05T17:49:08;14.87;;;9.27;;
19278;SDS011;9773;47.062;15.446;2022-12-05T17:51:39;14.23;;;8.90;;
19278;SDS011;9773;47.062;15.446;2022-12-05T17:54:05;13.93;;;9.07;;
19278;SDS011;9773;47.062;15.446;2022-12-05T17:56:31;17.40;;;10.50;;
19278;SDS011;9773;47.062;15.446;2022-12-05T17:58:57;15.40;;;10.13;;
19278;SDS011;9773;47.062;15.446;2022-12-05T18:01:27;18.17;;;10.43;;
19278;SDS011;9773;47.062;15.446;2022-12-05T18:03:53;16.67;;;10.80;;
19278;SDS011;9773;47.062;15.446;2022-12-05T18:06:18;16.10;;;10.47;;